Time;durP1;ratioP1;P1;durP2;ratioP2;P2;SDS_P1;SDS_P2;PMS_P1;PMS_P2;Temp;Humidity;BMP_temperature;BMP_pressure;BME280_temperature;BME280_humidity;BME280_pressure;Samples;Min_cycle;Max_cycle;Signal;HPM_P1;HPM_P2
2022/08/23 00:02:26;;;;;;;3.70;2.80;;;24.20;48.10;;;-142.21;45.07;112049.66;5021035;28;20212;-72
2022/08/23 00:04:55;;;;;;;3.60;2.90;;;24.10;48.10;;;-142.21;44.88;112049.66;5055729;28;20209;-72
2022/08/23 00:07:23;;;;;;;3.17;2.87;;;24.20;48.20;;;-142.21;45.04;112049.66;5055961;28;20207;-72
2022/08/23 00:09:51;;;;;;;3.07;2.77;;;24.20;48.10;;;-142.21;45.08;112049.66;5054947;28;20201;-72
2022/08/23 00:12:22;;;;;;;3.27;2.80;;;24.20;48.20;;;-142.21;45.30;112049.66;5055706;28;20208;-72
2022/08/23 00:14:53;;;;;;;2.90;2.60;;;24.20;48.20;;;-142.21;44.93;112049.66;5055138;28;20212;-72
2022/08/23 00:17:21;;;;;;;3.37;2.53;;;24.20;48.20;;;-142.21;45.20;112049.66;5055647;28;20203;-72
2022/08/23 00:19:49;;;;;;;2.80;2.50;;;24.20;48.20;;;-142.21;45.65;112049.66;5054718;28;20216;-72
2022/08/23 00:22:16;;;;;;;4.73;2.80;;;24.20;48.60;;;-142.21;46.06;112049.66;5055532;28;20205;-72
2022/08/23 00:24:45;;;;;;;3.00;2.60;;;24.10;48.70;;;-142.21;46.06;112049.66;5054900;28;20209;-72
2022/08/23 00:27:16;;;;;;;5.87;2.60;;;24.10;48.70;;;-142.21;46.15;112049.66;5055759;28;20298;-72
2022/08/23 00:29:48;;;;;;;3.33;2.90;;;24.10;48.80;;;-142.21;46.38;112049.66;5054724;28;20403;-72
2022/08/23 00:32:22;;;;;;;3.37;2.90;;;24.00;48.90;;;-142.21;46.93;112049.66;5055580;28;20211;-72
2022/08/23 00:34:51;;;;;;;3.23;2.70;;;24.10;49.20;;;-142.21;47.29;112049.66;5054755;28;20249;-71
2022/08/23 00:37:21;;;;;;;3.90;2.90;;;24.00;49.30;;;-142.21;47.30;112049.66;5054929;28;20241;-72
2022/08/23 00:39:50;;;;;;;2.70;2.50;;;24.00;49.20;;;-142.21;47.32;112049.66;5054841;28;20217;-72
2022/08/23 00:48:13;;;;;;;3.73;3.10;;;23.90;49.20;;;-142.21;47.57;112049.66;5054980;28;20251;-72
2022/08/23 00:51:00;;;;;;;5.37;2.90;;;23.80;49.40;;;-142.21;47.19;112049.66;5054067;28;20216;-72
2022/08/23 00:53:33;;;;;;;4.40;2.73;;;23.80;49.40;;;-142.21;47.21;112049.66;5054829;28;20208;-72
2022/08/23 00:56:07;;;;;;;3.37;2.60;;;23.80;49.40;;;-142.21;47.21;112049.66;5054717;28;20640;-72
2022/08/23 00:58:35;;;;;;;4.07;2.83;;;23.70;49.40;;;-142.21;47.76;112049.66;5053913;28;20359;-72
2022/08/23 01:01:06;;;;;;;4.83;2.97;;;23.70;49.60;;;-142.21;47.99;112049.66;5054895;28;20688;-72
2022/08/23 01:03:39;;;;;;;4.53;3.03;;;23.60;49.60;;;-142.21;48.50;112049.66;5053902;28;20190;-71
2022/08/23 01:06:13;;;;;;;3.43;2.90;;;23.60;49.80;;;-142.21;48.96;112049.66;5054427;28;20641;-72
2022/08/23 01:08:49;;;;;;;4.93;2.93;;;23.60;50.00;;;-142.21;49.25;112049.66;5053778;28;20663;-72
2022/08/23 01:11:27;;;;;;;9.03;3.37;;;23.50;49.90;;;-142.21;49.52;112049.66;5036583;28;20206;-72
2022/08/23 01:14:06;;;;;;;3.73;2.80;;;23.50;50.20;;;-142.21;50.10;112049.66;5034109;28;20221;-72
2022/08/23 01:16:43;;;;;;;4.93;3.30;;;23.40;50.30;;;-142.21;49.72;112049.66;5033901;28;20201;-72
2022/08/23 01:19:24;;;;;;;3.80;3.20;;;23.40;50.20;;;-142.21;50.58;112049.66;5034454;28;20201;-72
2022/08/23 01:22:00;;;;;;;3.63;2.67;;;23.30;51.10;;;-142.21;50.56;112049.66;5033971;28;20252;-71
2022/08/23 01:24:29;;;;;;;3.23;2.80;;;23.30;50.50;;;-142.21;50.56;112049.66;5034233;28;20247;-71
2022/08/23 01:27:01;;;;;;;4.23;2.90;;;23.30;50.50;;;-142.21;51.11;112049.66;5034249;28;20210;-72
2022/08/23 01:29:28;;;;;;;2.93;2.63;;;23.20;50.70;;;-142.21;51.96;112049.66;5034531;28;20194;-71
2022/08/23 01:31:56;;;;;;;3.13;2.83;;;23.30;50.90;;;-142.21;52.37;112049.66;5033516;28;20213;-72
2022/08/23 01:34:28;;;;;;;4.83;2.80;;;23.20;51.10;;;-142.21;52.78;112049.66;5034306;28;20235;-72
2022/08/23 01:37:00;;;;;;;4.30;2.70;;;23.20;51.30;;;-142.21;52.62;112049.66;5033408;28;20226;-72
2022/08/23 01:39:28;;;;;;;3.43;2.70;;;23.10;51.30;;;-142.21;53.14;112049.66;5033931;28;20220;-72
2022/08/23 01:41:56;;;;;;;3.03;2.60;;;23.10;51.40;;;-142.21;52.90;112049.66;5033307;28;20298;-72
2022/08/23 01:44:23;;;;;;;2.93;2.63;;;23.10;51.50;;;-142.21;52.99;112049.66;5034296;28;20199;-72
2022/08/23 01:46:50;;;;;;;3.13;2.80;;;23.10;51.60;;;-142.21;52.79;112049.66;5033541;28;20242;-72
2022/08/23 01:49:18;;;;;;;4.53;2.67;;;23.00;51.40;;;-142.21;53.55;112049.66;5033785;28;20206;-72
2022/08/23 01:51:45;;;;;;;3.70;3.10;;;23.00;51.60;;;-142.21;53.99;112049.66;5033041;28;20214;-72
2022/08/23 01:54:16;;;;;;;3.50;3.20;;;23.00;51.80;;;-142.21;54.26;112049.66;4999043;28;20316;-72
2022/08/23 01:56:45;;;;;;;3.67;2.80;;;23.00;51.90;;;-142.21;54.79;112049.66;5033320;28;20194;-72
2022/08/23 01:59:13;;;;;;;4.27;3.00;;;22.90;52.00;;;-142.21;54.83;112049.66;5033554;28;20284;-72
2022/08/23 02:01:40;;;;;;;3.30;3.00;;;22.90;52.10;;;-142.21;55.34;112049.66;5033007;28;20680;-72
2022/08/23 02:04:08;;;;;;;3.07;2.77;;;22.80;52.20;;;-142.21;55.23;112049.66;5033601;28;20242;-71
2022/08/23 02:06:35;;;;;;;4.60;2.90;;;22.80;52.20;;;-142.21;55.41;112049.66;5032954;28;20198;-72
2022/08/23 02:09:04;;;;;;;4.50;3.20;;;22.80;52.20;;;-142.21;55.52;112049.66;5065615;28;20211;-72
2022/08/23 02:11:35;;;;;;;4.67;3.20;;;22.70;52.30;;;-142.21;55.83;112049.66;5034182;28;20202;-72
2022/08/23 02:14:09;;;;;;;3.67;2.87;;;22.70;52.60;;;-142.21;56.17;112049.66;5053668;28;20210;-72
2022/08/23 02:16:41;;;;;;;3.00;2.77;;;22.70;52.70;;;-142.21;56.17;112049.66;5051870;28;20190;-72
2022/08/23 02:19:12;;;;;;;4.27;3.57;;;22.70;52.70;;;-142.21;56.43;112049.66;5053559;28;20221;-72
2022/08/23 02:21:42;;;;;;;3.20;2.90;;;22.70;52.70;;;-142.21;56.57;112049.66;5052663;28;20249;-72
2022/08/23 02:24:14;;;;;;;3.30;2.97;;;22.70;52.70;;;-142.21;57.05;112049.66;5053389;28;20202;-72
2022/08/23 02:26:46;;;;;;;3.30;3.00;;;22.60;52.90;;;-142.21;57.98;112049.66;5052502;28;20239;-72
2022/08/23 02:29:17;;;;;;;3.80;3.40;;;22.60;53.20;;;-142.21;58.42;112049.66;5053268;28;20236;-73
2022/08/23 02:31:44;;;;;;;4.97;3.03;;;22.50;53.30;;;-142.21;58.41;112049.66;5052602;28;20190;-73
2022/08/23 02:34:12;;;;;;;3.23;2.93;;;22.50;53.20;;;-142.21;58.14;112049.66;5053096;28;20230;-72
2022/08/23 02:36:40;;;;;;;4.50;2.83;;;22.50;53.30;;;-142.21;58.26;112049.66;5052281;28;20226;-72
2022/08/23 02:39:09;;;;;;;3.27;2.97;;;22.40;53.30;;;-142.21;59.21;112049.66;5052655;28;20287;-72
2022/08/23 02:41:37;;;;;;;4.43;3.33;;;22.40;53.50;;;-142.21;58.79;112049.66;5052765;28;20739;-72
2022/08/23 02:44:05;;;;;;;7.30;3.07;;;22.40;53.50;;;-142.21;59.28;112049.66;5053885;28;20256;-72
2022/08/23 02:46:34;;;;;;;2.83;2.63;;;22.40;53.50;;;-142.21;59.51;112049.66;5053997;28;20297;-72
2022/08/23 02:49:02;;;;;;;4.40;3.10;;;22.30;53.60;;;-142.21;59.56;112049.66;5053176;28;20205;-72
2022/08/23 02:51:29;;;;;;;3.30;2.80;;;22.30;53.70;;;-142.21;59.40;112049.66;5053632;28;20209;-72
2022/08/23 02:53:57;;;;;;;4.90;3.20;;;22.20;53.60;;;-142.21;59.60;112049.66;5052772;28;20229;-71
2022/08/23 02:56:25;;;;;;;3.50;3.20;;;22.20;53.80;;;-142.21;59.46;112049.66;5054300;28;20210;-71
2022/08/23 02:58:52;;;;;;;4.30;3.40;;;22.20;53.90;;;-142.21;60.02;112049.66;5052916;28;20237;-72
2022/08/23 03:01:23;;;;;;;3.47;3.10;;;22.20;54.00;;;-142.21;60.65;112049.66;5053575;28;20292;-72
2022/08/23 03:03:53;;;;;;;4.00;3.30;;;22.10;54.10;;;-142.21;60.72;112049.66;5068280;28;20192;-72
2022/08/23 03:06:21;;;;;;;7.00;3.33;;;22.10;54.10;;;-142.21;60.65;112049.66;5070727;28;20181;-72
2022/08/23 03:08:49;;;;;;;6.10;3.10;;;22.10;54.00;;;-142.21;61.09;112049.66;5060984;28;20233;-72
2022/08/23 03:11:21;;;;;;;3.67;2.90;;;22.10;54.20;;;-142.21;61.19;112049.66;5052425;28;20205;-71
2022/08/23 03:13:50;;;;;;;3.30;3.00;;;22.00;54.30;;;-142.21;61.36;112049.66;5051812;28;20198;-73
2022/08/23 03:16:19;;;;;;;4.30;2.90;;;22.00;54.30;;;-142.21;61.46;112049.66;5051921;28;20259;-72
2022/08/23 03:18:48;;;;;;;4.13;3.47;;;22.00;54.40;;;-142.21;62.08;112049.66;5051401;28;20214;-72
2022/08/23 03:21:20;;;;;;;4.13;3.23;;;22.00;54.50;;;-142.21;62.50;112049.66;5052276;28;20314;-71
2022/08/23 03:23:48;;;;;;;4.13;3.43;;;22.00;54.80;;;-142.21;62.32;112049.66;5051480;28;20222;-72
2022/08/23 03:26:16;;;;;;;3.20;2.90;;;21.90;54.70;;;-142.21;62.76;112049.66;5052194;28;20209;-72
2022/08/23 03:28:46;;;;;;;3.50;3.20;;;21.90;54.80;;;-142.21;62.80;112049.66;5051265;28;20209;-73
2022/08/23 03:31:15;;;;;;;3.50;3.13;;;21.90;54.90;;;-142.21;63.53;112049.66;5051789;28;20209;-72
2022/08/23 03:33:43;;;;;;;5.87;3.50;;;21.80;55.00;;;-142.21;63.78;112049.66;5051048;28;20218;-72
2022/08/23 03:36:12;;;;;;;3.90;3.50;;;21.80;54.90;;;-142.21;63.36;112049.66;5051836;28;20230;-72
2022/08/23 03:38:42;;;;;;;3.80;3.20;;;21.80;55.20;;;-142.21;63.88;112049.66;5051829;28;20291;-72
2022/08/23 03:41:10;;;;;;;3.53;3.20;;;21.80;55.20;;;-142.21;63.89;112049.66;5052124;28;20197;-71
2022/08/23 03:43:38;;;;;;;5.33;3.63;;;21.80;55.20;;;-142.21;64.21;112049.66;5051981;28;20202;-72
2022/08/23 03:46:07;;;;;;;4.10;3.70;;;21.70;55.40;;;-142.21;64.40;112049.66;5051858;28;20292;-71
2022/08/23 03:48:34;;;;;;;4.80;3.60;;;21.70;55.40;;;-142.21;64.41;112049.66;5051688;28;20241;-72
2022/08/23 03:51:02;;;;;;;4.40;3.47;;;21.60;55.40;;;-142.21;64.00;112049.66;5051167;28;20268;-72
2022/08/23 03:53:29;;;;;;;5.60;3.90;;;21.60;55.40;;;-142.21;64.86;112049.66;5051908;28;20205;-73
2022/08/23 03:55:58;;;;;;;4.33;3.93;;;21.60;55.60;;;-142.21;64.67;112049.66;5051389;28;20226;-72
2022/08/23 03:58:27;;;;;;;4.07;3.47;;;21.50;56.10;;;-142.21;65.31;112049.66;5051487;28;20717;-71
2022/08/23 04:00:56;;;;;;;3.90;3.23;;;21.50;55.60;;;-142.21;65.35;112049.66;5051450;28;20604;-72
2022/08/23 04:03:23;;;;;;;4.33;3.40;;;21.50;55.90;;;-142.21;65.48;112049.66;5051722;28;20215;-71
2022/08/23 04:05:51;;;;;;;4.13;3.73;;;21.50;55.80;;;-142.21;65.34;112049.66;5051191;28;20209;-73
2022/08/23 04:08:18;;;;;;;4.50;3.60;;;21.50;55.80;;;-142.21;65.37;112049.66;5051944;28;20212;-71
2022/08/23 04:10:45;;;;;;;6.03;3.70;;;21.50;55.90;;;-142.21;65.55;112049.66;5051409;28;20216;-72
2022/08/23 04:13:14;;;;;;;5.00;3.70;;;21.40;55.70;;;-142.21;66.20;112049.66;5051697;28;20229;-73
2022/08/23 04:15:41;;;;;;;5.93;3.40;;;21.40;56.10;;;-142.21;66.61;112049.66;5051662;28;20275;-73
2022/08/23 04:18:09;;;;;;;7.50;3.53;;;21.40;56.10;;;-142.21;67.09;112049.66;5051746;28;20212;-73
2022/08/23 04:20:38;;;;;;;8.60;3.90;;;21.30;56.30;;;-142.21;66.69;112049.66;5051691;28;20206;-72
2022/08/23 04:23:05;;;;;;;4.87;3.47;;;21.40;56.30;;;-142.21;66.71;112049.66;5050780;28;20238;-72
2022/08/23 04:25:32;;;;;;;4.73;3.27;;;21.40;56.30;;;-142.21;68.19;112049.66;5051407;28;20675;-72
2022/08/23 04:28:00;;;;;;;4.00;3.57;;;21.30;56.70;;;-142.21;69.14;112049.66;5050859;28;20248;-74
2022/08/23 04:30:29;;;;;;;5.70;3.57;;;21.30;57.00;;;-142.21;68.85;112049.66;5051314;28;20205;-73
2022/08/23 04:32:56;;;;;;;4.50;3.97;;;21.20;57.10;;;-142.21;69.51;112049.66;5051019;28;20202;-72
2022/08/23 04:35:25;;;;;;;6.07;3.77;;;21.20;57.20;;;-142.21;68.81;112049.66;5051518;28;20230;-72
2022/08/23 04:37:53;;;;;;;4.30;3.63;;;21.30;57.10;;;-142.21;68.87;112049.66;5051080;28;20267;-72
2022/08/23 04:43:05;;;;;;;4.10;3.70;;;21.20;57.00;;;-142.21;69.98;112049.66;5054469;28;20608;-72
2022/08/23 04:45:34;;;;;;;6.13;4.27;;;21.20;57.30;;;-142.21;70.23;112049.66;5054946;28;20202;-72
2022/08/23 04:48:01;;;;;;;7.10;4.20;;;21.20;57.60;;;-142.21;70.47;112049.66;5054197;28;20206;-72
2022/08/23 04:50:31;;;;;;;3.93;3.37;;;21.10;57.70;;;-142.21;70.53;112049.66;5054944;28;20206;-72
2022/08/23 04:52:59;;;;;;;3.80;3.43;;;21.10;57.60;;;-142.21;70.54;112049.66;5054193;28;20205;-72
2022/08/23 04:55:27;;;;;;;5.73;4.30;;;21.10;57.60;;;-142.21;72.45;112049.66;5054664;28;20234;-72
2022/08/23 04:57:55;;;;;;;9.40;4.83;;;21.10;58.20;;;-142.21;73.95;112049.66;5053695;28;20283;-72
2022/08/23 05:00:23;;;;;;;7.33;5.13;;;21.10;58.60;;;-142.21;75.84;112049.66;5054898;28;20206;-72
2022/08/23 05:02:53;;;;;;;6.40;3.70;;;21.10;59.50;;;-142.21;75.51;112049.66;5054064;28;20246;-72
2022/08/23 05:05:20;;;;;;;5.67;4.03;;;21.00;59.60;;;-142.21;74.35;112049.66;5054891;28;20197;-72
2022/08/23 05:07:48;;;;;;;6.20;3.93;;;21.00;59.10;;;-142.21;72.84;112049.66;5054006;28;20201;-72
2022/08/23 05:10:17;;;;;;;4.43;3.57;;;21.10;58.80;;;-142.21;72.71;112049.66;5054806;28;20214;-72
2022/08/23 05:12:44;;;;;;;4.33;3.40;;;21.10;58.50;;;-142.21;72.79;112049.66;5054223;28;20663;-72
2022/08/23 05:15:15;;;;;;;6.20;3.63;;;21.10;58.90;;;-142.21;71.65;112049.66;5054477;28;20300;-71
2022/08/23 05:17:42;;;;;;;6.50;3.90;;;21.20;58.40;;;-142.21;71.28;112049.66;5054746;28;20198;-73
2022/08/23 05:20:12;;;;;;;4.10;3.70;;;21.20;58.40;;;-142.21;70.44;112049.66;5054024;28;20241;-72
2022/08/23 05:22:41;;;;;;;3.60;3.27;;;21.20;58.20;;;-142.21;71.44;112049.66;5054129;28;20241;-72
2022/08/23 05:25:10;;;;;;;3.87;3.30;;;21.30;58.40;;;-142.21;72.33;112049.66;5054209;28;20827;-72
2022/08/23 05:27:38;;;;;;;3.67;3.37;;;21.30;58.60;;;-142.21;72.60;112049.66;5054438;28;20213;-72
2022/08/23 05:30:07;;;;;;;5.60;3.20;;;21.30;58.60;;;-142.21;71.72;112049.66;5053774;28;20267;-71
2022/08/23 05:32:37;;;;;;;4.10;3.43;;;21.30;58.60;;;-142.21;74.00;112049.66;5053820;28;20289;-72
2022/08/23 05:35:06;;;;;;;4.10;3.60;;;21.40;59.10;;;-142.21;72.88;112049.66;5053442;28;20267;-72
2022/08/23 05:37:35;;;;;;;7.70;3.73;;;21.40;58.90;;;-142.21;71.90;112049.66;5054104;28;20233;-72
2022/08/23 05:40:04;;;;;;;4.53;3.13;;;21.40;58.50;;;-142.21;70.99;112049.66;5053582;28;20255;-72
2022/08/23 05:42:31;;;;;;;5.53;3.27;;;21.40;58.30;;;-142.21;71.66;112049.66;5054313;28;20205;-71
2022/08/23 05:44:58;;;;;;;4.50;3.20;;;21.50;58.40;;;-142.21;71.33;112049.66;5053441;28;20608;-71
2022/08/23 05:47:26;;;;;;;3.40;3.10;;;21.50;58.50;;;-142.21;71.01;112049.66;5053814;28;20212;-72
2022/08/23 05:49:55;;;;;;;3.83;3.13;;;21.50;58.20;;;-142.21;70.04;112049.66;5052860;28;20205;-72
2022/08/23 05:52:22;;;;;;;4.97;3.00;;;21.60;57.90;;;-142.21;69.14;112049.66;5053227;28;20241;-72
2022/08/23 05:54:51;;;;;;;3.73;2.77;;;21.60;57.50;;;-142.21;68.44;112049.66;5053066;28;20233;-71
2022/08/23 05:57:18;;;;;;;5.77;3.27;;;21.70;57.40;;;-142.21;66.87;112049.66;5054096;28;20605;-73
2022/08/23 05:59:46;;;;;;;5.13;3.27;;;21.70;56.80;;;-142.21;66.39;112049.66;5035472;28;20205;-72
2022/08/23 06:02:13;;;;;;;4.70;2.80;;;21.80;56.80;;;-142.21;65.70;112049.66;5053851;28;20210;-71
2022/08/23 06:04:41;;;;;;;6.43;3.30;;;21.90;57.20;;;-142.21;64.79;112049.66;5034979;28;20288;-72
2022/08/23 06:07:09;;;;;;;4.23;2.90;;;22.00;56.40;;;-142.21;63.82;112049.66;5053189;28;20267;-72
2022/08/23 06:09:37;;;;;;;5.03;3.13;;;22.10;56.10;;;-142.21;63.44;112049.66;5053168;28;20209;-72
2022/08/23 06:12:07;;;;;;;5.97;3.20;;;22.20;56.10;;;-142.21;62.22;112049.66;5053152;28;20205;-72
2022/08/23 06:14:34;;;;;;;4.40;3.10;;;22.20;55.80;;;-142.21;62.25;112049.66;5054264;28;20260;-72
2022/08/23 06:17:01;;;;;;;4.50;2.83;;;22.20;55.80;;;-142.21;60.77;112049.66;5053379;28;20216;-73
2022/08/23 06:19:28;;;;;;;3.27;2.97;;;22.30;55.40;;;-142.21;60.63;112049.66;5053592;28;20732;-72
2022/08/23 06:21:55;;;;;;;3.37;3.03;;;22.40;55.50;;;-142.21;60.55;112049.66;5052825;28;20241;-72
2022/08/23 06:24:23;;;;;;;3.73;3.00;;;22.40;55.30;;;-142.21;60.38;112049.66;5053957;28;20620;-71
2022/08/23 06:26:51;;;;;;;4.00;3.23;;;22.50;55.30;;;-142.21;58.79;112049.66;5054038;28;20202;-71
2022/08/23 06:29:21;;;;;;;3.53;2.93;;;22.60;54.90;;;-142.21;59.42;112049.66;5053320;28;20213;-72
2022/08/23 06:31:52;;;;;;;4.47;2.97;;;22.60;55.10;;;-142.21;58.40;112049.66;5053384;28;20205;-72
2022/08/23 06:34:23;;;;;;;4.20;2.73;;;22.70;54.80;;;-142.21;58.33;112049.66;5069449;28;20224;-72
2022/08/23 06:36:54;;;;;;;3.37;2.70;;;22.80;54.70;;;-142.21;58.78;112049.66;5064206;28;20268;-72
2022/08/23 06:39:25;;;;;;;4.10;2.90;;;22.90;54.90;;;-142.21;58.32;112049.66;5053180;28;20213;-72
2022/08/23 06:41:53;;;;;;;3.90;3.07;;;22.90;54.70;;;-142.21;58.12;112049.66;5052116;28;20190;-72
2022/08/23 06:44:22;;;;;;;4.77;2.80;;;23.10;54.60;;;-142.21;57.28;112049.66;5052698;28;20220;-72
2022/08/23 06:46:50;;;;;;;3.30;3.00;;;23.20;54.40;;;-142.21;57.06;112049.66;5052931;28;20629;-72
2022/08/23 06:49:17;;;;;;;4.43;3.33;;;23.20;54.30;;;-142.21;56.87;112049.66;5052540;28;20299;-72
2022/08/23 06:51:50;;;;;;;4.67;3.43;;;23.30;54.10;;;-142.21;57.05;112049.66;5052956;28;20712;-73
2022/08/23 06:54:21;;;;;;;3.00;2.70;;;23.50;54.00;;;-142.21;56.26;112049.66;5052384;28;20255;-74
2022/08/23 06:56:49;;;;;;;3.57;2.97;;;23.60;53.80;;;-142.21;55.79;112049.66;5052275;28;20283;-73
2022/08/23 06:59:19;;;;;;;4.50;3.20;;;23.70;53.60;;;-142.21;55.04;112049.66;5052233;28;20241;-72
2022/08/23 07:01:53;;;;;;;3.27;2.70;;;23.80;53.40;;;-142.21;54.01;112049.66;5051995;28;20267;-72
2022/08/23 07:04:28;;;;;;;4.10;2.73;;;23.90;53.10;;;-142.21;53.84;112049.66;5052326;28;20531;-72
2022/08/23 07:06:56;;;;;;;3.23;2.93;;;23.90;52.90;;;-142.21;53.36;112049.66;5051563;28;20194;-72
2022/08/23 07:09:25;;;;;;;5.37;3.07;;;24.00;52.80;;;-142.21;53.46;112049.66;5052351;28;20201;-72
2022/08/23 07:11:54;;;;;;;3.53;2.63;;;24.10;52.90;;;-142.21;53.29;112049.66;5051772;28;20253;-72
2022/08/23 07:14:23;;;;;;;2.87;2.60;;;24.20;52.80;;;-142.21;52.45;112049.66;5052589;28;20204;-72
2022/08/23 07:17:00;;;;;;;2.87;2.63;;;24.30;52.50;;;-142.21;51.80;112049.66;5052046;28;20229;-71
2022/08/23 07:19:31;;;;;;;3.73;2.70;;;24.40;52.10;;;-142.21;50.24;112049.66;5051987;28;20193;-72
2022/08/23 07:22:00;;;;;;;4.87;2.70;;;24.50;51.60;;;-142.21;50.33;112049.66;5051715;28;20636;-72
2022/08/23 07:24:28;;;;;;;3.03;2.60;;;24.60;51.60;;;-142.21;50.63;112049.66;5052188;28;20259;-72
2022/08/23 07:26:56;;;;;;;4.47;2.73;;;24.80;51.70;;;-142.21;49.22;112049.66;5051593;28;20278;-72
2022/08/23 07:29:23;;;;;;;3.83;2.63;;;24.80;51.30;;;-142.21;48.86;112049.66;5051787;28;20670;-72
2022/08/23 07:31:55;;;;;;;6.10;3.10;;;25.00;51.30;;;-142.21;48.49;112049.66;5051861;28;20229;-73
2022/08/23 07:34:24;;;;;;;3.37;2.63;;;25.10;51.00;;;-142.21;48.57;112049.66;5051625;28;20236;-72
2022/08/23 07:36:55;;;;;;;4.30;3.00;;;25.20;50.90;;;-142.21;47.17;112049.66;5051497;28;20265;-72
2022/08/23 07:39:26;;;;;;;3.17;2.40;;;25.30;50.50;;;-142.21;48.04;112049.66;5051690;28;20206;-72
2022/08/23 07:41:54;;;;;;;4.23;2.43;;;25.30;50.80;;;-142.21;46.79;112049.66;5051924;28;20182;-71
2022/08/23 07:44:21;;;;;;;4.23;2.57;;;25.40;50.40;;;-142.21;46.79;112049.66;5052129;28;20219;-72
2022/08/23 07:46:48;;;;;;;11.63;3.27;;;25.50;50.50;;;-142.21;45.98;112049.66;5051816;28;20663;-73
2022/08/23 07:49:20;;;;;;;5.43;2.50;;;25.60;50.10;;;-142.21;45.50;112049.66;5051430;28;20237;-73
2022/08/23 07:51:51;;;;;;;3.63;2.47;;;25.70;50.10;;;-142.21;44.72;112049.66;5032993;28;20212;-73
2022/08/23 07:54:21;;;;;;;4.53;2.60;;;25.80;50.50;;;-142.21;43.83;112049.66;5051151;28;20194;-73
2022/08/23 07:56:48;;;;;;;3.33;2.33;;;25.90;49.40;;;-142.21;43.79;112049.66;5051532;28;20229;-72
2022/08/23 07:59:16;;;;;;;5.47;2.23;;;25.80;49.40;;;-142.21;43.58;112049.66;5051101;28;20324;-72
2022/08/23 08:01:44;;;;;;;3.97;2.20;;;25.90;49.30;;;-142.21;44.12;112049.66;5051847;28;20267;-72
2022/08/23 08:04:12;;;;;;;3.93;2.40;;;26.00;49.60;;;-142.21;43.17;112049.66;5051262;28;20213;-72
2022/08/23 08:06:46;;;;;;;2.57;1.90;;;26.10;49.40;;;-142.21;43.55;112049.66;5051766;28;20544;-72
2022/08/23 08:09:15;;;;;;;4.20;2.27;;;26.30;49.30;;;-142.21;42.98;112049.66;5050534;28;20251;-72
2022/08/23 08:11:47;;;;;;;3.07;2.30;;;26.40;48.90;;;-142.21;43.34;112049.66;5051547;28;20206;-73
2022/08/23 08:14:16;;;;;;;3.57;2.17;;;26.50;48.70;;;-142.21;43.40;112049.66;5052627;28;20197;-73
2022/08/23 08:16:46;;;;;;;2.77;2.43;;;26.70;48.70;;;-142.21;43.06;112049.66;5055615;28;20630;-72
2022/08/23 08:19:17;;;;;;;4.13;2.60;;;26.80;48.60;;;-142.21;42.57;112049.66;5055319;28;20287;-72
2022/08/23 08:21:47;;;;;;;3.77;2.37;;;26.80;48.20;;;-142.21;42.00;112049.66;5055398;28;20190;-72
2022/08/23 08:24:17;;;;;;;2.57;2.20;;;26.90;48.30;;;-142.21;41.97;112049.66;5054781;28;20206;-72
2022/08/23 08:26:46;;;;;;;2.87;2.53;;;26.90;47.90;;;-142.21;41.69;112049.66;5055788;28;20198;-72
2022/08/23 08:29:14;;;;;;;2.43;2.03;;;27.10;47.50;;;-142.21;42.43;112049.66;5054713;28;20248;-72
2022/08/23 08:31:44;;;;;;;5.87;2.40;;;27.10;47.70;;;-142.21;41.83;112049.66;5055074;28;20245;-72
2022/08/23 08:34:12;;;;;;;2.30;2.10;;;27.30;47.40;;;-142.21;41.07;112049.66;5054794;28;20206;-72
2022/08/23 08:36:46;;;;;;;4.47;2.37;;;27.30;46.70;;;-142.21;41.59;112049.66;5054812;28;20289;-73
2022/08/23 08:39:18;;;;;;;4.60;2.60;;;27.30;47.30;;;-142.21;41.50;112049.66;5054829;28;20206;-72
2022/08/23 08:42:03;;;;;;;2.87;2.20;;;27.50;47.50;;;-142.21;41.28;112049.66;5055308;28;20594;-72
2022/08/23 08:44:40;;;;;;;3.03;2.50;;;27.60;47.10;;;-142.21;40.78;112049.66;5055421;28;20190;-73
2022/08/23 08:47:17;;;;;;;4.13;2.33;;;27.70;46.70;;;-142.21;40.46;112049.66;5054756;28;20280;-73
2022/08/23 08:49:56;;;;;;;3.97;2.80;;;27.80;46.40;;;-142.21;40.34;112049.66;5054834;28;20199;-72
2022/08/23 08:52:28;;;;;;;3.93;2.50;;;28.00;46.40;;;-142.21;39.83;112049.66;5055073;28;20194;-73
2022/08/23 08:55:09;;;;;;;3.00;2.70;;;28.00;45.80;;;-142.21;39.87;112049.66;5054861;28;20192;-73
2022/08/23 08:57:41;;;;;;;2.97;2.33;;;28.00;45.90;;;-142.21;39.88;112049.66;5054886;28;20245;-72
2022/08/23 09:00:13;;;;;;;3.10;2.50;;;28.10;46.10;;;-142.21;39.42;112049.66;5018905;28;20200;-72
2022/08/23 09:02:43;;;;;;;3.60;2.40;;;28.20;45.60;;;-142.21;38.66;112049.66;5054959;28;20195;-73
2022/08/23 09:05:16;;;;;;;3.03;2.40;;;28.30;45.40;;;-142.21;38.36;112049.66;5053927;28;20196;-72
2022/08/23 09:08:10;;;;;;;3.13;2.70;;;28.40;44.90;;;-142.21;39.93;112049.66;5054755;28;20195;-72
2022/08/23 09:11:05;;;;;;;2.70;2.40;;;28.40;45.70;;;-142.21;38.75;112049.66;5054754;28;20655;-71
2022/08/23 09:14:09;;;;;;;2.50;2.30;;;28.60;44.60;;;-142.21;39.99;112049.66;5054655;28;20200;-73
2022/08/23 09:16:50;;;;;;;3.37;2.50;;;28.50;45.10;;;-142.21;38.25;112049.66;5054281;28;20207;-72
2022/08/23 09:19:19;;;;;;;2.60;2.10;;;28.50;44.70;;;-142.21;38.22;112049.66;5054091;28;20190;-73
2022/08/23 09:21:53;;;;;;;2.40;2.20;;;28.60;44.60;;;-142.21;39.13;112049.66;5054294;28;20222;-72
2022/08/23 09:24:22;;;;;;;2.23;2.03;;;28.70;45.00;;;-142.21;39.88;112049.66;5053418;28;20242;-72
2022/08/23 09:26:52;;;;;;;5.50;2.10;;;29.00;46.10;;;-142.21;40.08;112049.66;5053966;28;20270;-73
2022/08/23 09:29:23;;;;;;;3.27;2.50;;;29.10;45.40;;;-142.21;39.30;112049.66;5053458;28;20656;-72
2022/08/23 09:31:54;;;;;;;5.00;2.53;;;29.30;44.90;;;-142.21;38.05;112049.66;5054265;28;20187;-72
2022/08/23 09:34:42;;;;;;;4.43;2.20;;;29.50;44.70;;;-142.21;37.35;112049.66;5053526;28;20211;-72
2022/08/23 09:37:19;;;;;;;3.00;2.50;;;29.50;43.20;;;-142.21;39.12;112049.66;5053603;28;20231;-71
2022/08/23 09:39:52;;;;;;;2.77;2.30;;;29.60;44.60;;;-142.21;39.46;112049.66;5054561;28;20255;-72
2022/08/23 09:42:35;;;;;;;2.87;2.00;;;29.80;44.80;;;-142.21;38.72;112049.66;5053318;28;20193;-72
2022/08/23 09:45:05;;;;;;;3.63;2.63;;;30.00;44.10;;;-142.21;38.08;112049.66;5053618;28;20225;-73
2022/08/23 09:47:39;;;;;;;3.23;2.10;;;30.20;44.10;;;-142.21;37.71;112049.66;5054134;28;20267;-71
2022/08/23 09:50:24;;;;;;;2.40;2.20;;;30.30;43.30;;;-142.21;37.69;112049.66;5053301;28;20220;-73
2022/08/23 09:52:58;;;;;;;3.10;2.57;;;30.50;43.40;;;-142.21;36.28;112049.66;5054121;28;20197;-71
2022/08/23 09:55:34;;;;;;;2.77;2.50;;;30.60;42.20;;;-142.21;35.07;112049.66;5053107;28;20653;-72
2022/08/23 09:58:07;;;;;;;2.63;2.40;;;30.60;40.40;;;-142.21;35.52;112049.66;5053526;28;20236;-72
2022/08/23 10:00:37;;;;;;;4.00;2.30;;;30.40;41.60;;;-142.21;36.78;112049.66;5054084;28;20190;-73
2022/08/23 10:03:25;;;;;;;3.17;2.37;;;30.50;42.50;;;-142.21;35.44;112049.66;5057588;28;20205;-71
2022/08/23 10:05:56;;;;;;;2.67;2.47;;;30.60;40.90;;;-142.21;35.50;112049.66;5065052;28;20197;-72
2022/08/23 10:08:28;;;;;;;4.10;2.60;;;30.60;41.30;;;-142.21;35.70;112049.66;5061291;28;20206;-71
2022/08/23 10:11:16;;;;;;;3.67;2.50;;;30.80;41.30;;;-142.21;35.56;112049.66;5053735;28;20605;-73
2022/08/23 10:13:44;;;;;;;3.90;2.33;;;30.90;40.90;;;-142.21;36.02;112049.66;5053818;28;20553;-72
2022/08/23 10:16:27;;;;;;;2.90;2.50;;;31.00;41.60;;;-142.21;35.18;112049.66;5052943;28;20230;-71
2022/08/23 10:19:07;;;;;;;2.80;2.20;;;31.20;40.80;;;-142.21;34.19;112049.66;5053794;28;20194;-72
2022/08/23 10:21:42;;;;;;;3.77;2.47;;;31.30;39.80;;;-142.21;33.99;112049.66;5053645;28;20292;-71
2022/08/23 10:24:23;;;;;;;3.60;2.57;;;31.20;39.20;;;-142.21;33.75;112049.66;5052844;28;20243;-71